Airfield :
LOGIN :

Register | Disclaimer

   EN    FR    IT 

 










Legend :    VFR   Marginal VFR   IFR   Intensive IFR   Very Intensive IFR
Visi :
Ceiling :
>= 8 km
>= 3000ft
5 to 8 km
1000 to 3000 ft
1500m to 5 km
500 to 1000 ft
800 to 1500m
200 to 500 ft
< 800m
< 200 ft
Symbols :   Thunderstorms  Fog  Heavy snow  Heavy precipitations  Wind > 20 kt
SIGMETs :     Misc.  Thunderstorms  Icing  Turbulence  Mountain Waves  Volcanic Ashes






- Airport Elevation : 44 ft
- IATA code : SOU


EGHI - Southampton

CURRENT METAR :
  • 011350Z VRB01KT CAVOK 08/07 Q1028

EXPIRED METARs :
  • 011320Z 00000KT CAVOK 08/07 Q1028
  • 011250Z VRB01KT 9000 FEW007 07/07 Q1029
  • 011220Z VRB01KT 9000 FEW007 06/06 Q1029
  • 011150Z VRB01KT 9000 SCT003 05/05 Q1029
  • 011120Z 00000KT 7000 SCT003 05/05 Q1029

TAF AMD TAF EGHI
Valid from the 01 at 13:00 until the 01 at 21:00 UTC


011331Z 0113/0121 VRB03KT 9999 FEW040
TEMPO 0113/0115 7000
BECMG 0115/0118 2000 BR BKN003
PROB40 0116/0121 0300 FG VV///
ATIS : +44 23 8062 7103



MET'MAP, your aeronautical weather chart ! - Copyright ORBIFLY December 2007 - Disclaimer

ORBIFLY MET'MAP TEAM :

Programming & Development : Alexandra Zaïnal
Original concept : Baudouin d'Aumeries
Technical & hardware support : Manuel Goepfert
Assistance : Marc-Olivier Méhu




SOURCES & CREDITS :

   NOAA